createdAt,value
2019-06-07T00:00:43.233Z,3.90
2019-06-07T00:03:38.900Z,4.10
2019-06-07T00:06:07.133Z,4.30
2019-06-07T00:08:35.723Z,4.17
2019-06-07T00:11:03.167Z,3.73
2019-06-07T00:13:30.598Z,3.77
2019-06-07T00:15:58.095Z,3.90
2019-06-07T00:18:26.362Z,4.20
2019-06-07T00:20:53.893Z,4.33
2019-06-07T00:23:22.925Z,4.43
2019-06-07T00:25:50.842Z,4.20
2019-06-07T00:28:18.827Z,3.80
2019-06-07T00:30:51.917Z,4.20
2019-06-07T00:33:21.113Z,4.20
2019-06-07T00:35:46.286Z,4.30
2019-06-07T00:38:14.353Z,4.30
2019-06-07T00:40:42.535Z,4.27
2019-06-07T00:43:14.159Z,4.07
2019-06-07T00:45:39.326Z,4.40
2019-06-07T00:48:51.815Z,4.33
2019-06-07T00:55:04.315Z,4.10
2019-06-07T01:13:39.642Z,4.57
2019-06-07T01:16:07.101Z,4.10
2019-06-07T01:18:39.059Z,4.30
2019-06-07T01:21:03.802Z,4.13
2019-06-07T01:26:00.572Z,4.30
2019-06-07T01:28:30.197Z,4.17
2019-06-07T01:30:57.285Z,4.00
2019-06-07T01:33:39.662Z,4.40
2019-06-07T01:35:53.999Z,4.23
2019-06-07T01:38:24.473Z,4.80
2019-06-07T01:40:50.818Z,4.50
2019-06-07T01:43:19.554Z,4.03
2019-06-07T01:45:47.873Z,4.30
2019-06-07T01:48:17.730Z,4.57
2019-06-07T01:50:44.493Z,4.83
2019-06-07T01:53:12.036Z,4.53
2019-06-07T01:55:39.394Z,4.57
2019-06-07T01:58:06.747Z,4.67
2019-06-07T02:00:34.128Z,4.47
2019-06-07T02:03:01.592Z,5.20
2019-06-07T02:05:30.999Z,4.37
2019-06-07T02:07:58.409Z,4.37
2019-06-07T02:10:28.448Z,5.10
2019-06-07T02:12:56.671Z,5.23
2019-06-07T02:15:28.004Z,4.93
2019-06-07T02:17:53.918Z,5.30
2019-06-07T02:20:25.788Z,5.00
2019-06-07T02:22:50.667Z,5.13
2019-06-07T02:25:37.217Z,5.17
2019-06-07T02:27:47.382Z,4.87
2019-06-07T02:32:44.593Z,5.20
2019-06-07T02:35:13.026Z,4.87
2019-06-07T02:37:40.490Z,5.00
2019-06-07T02:40:08.632Z,4.90
2019-06-07T02:42:42.198Z,5.07
2019-06-07T02:45:07.433Z,5.10
2019-06-07T02:47:37.653Z,5.03
2019-06-07T02:50:04.817Z,5.20
2019-06-07T02:52:40.340Z,5.40
2019-06-07T02:55:07.973Z,5.30
2019-06-07T02:57:36.855Z,6.03
2019-06-07T03:00:17.134Z,5.47
2019-06-07T03:02:40.782Z,5.40
2019-06-07T03:05:04.063Z,5.33
2019-06-07T03:07:36.183Z,5.37
2019-06-07T03:10:03.479Z,6.07
2019-06-07T03:12:33.571Z,5.83
2019-06-07T03:15:03.578Z,5.73
2019-06-07T03:17:46.043Z,5.23
2019-06-07T03:20:14.915Z,5.40
2019-06-07T03:22:42.403Z,5.90
2019-06-07T03:25:11.057Z,5.50
2019-06-07T03:27:48.269Z,5.70
2019-06-07T03:30:36.405Z,5.17
2019-06-07T03:32:45.784Z,5.37
2019-06-07T03:35:07.136Z,5.53
2019-06-07T03:37:39.761Z,5.80
2019-06-07T03:40:04.375Z,5.00
2019-06-07T03:42:32.297Z,5.83
2019-06-07T03:45:00.998Z,5.63
2019-06-07T03:47:31.631Z,6.50
2019-06-07T03:49:57.717Z,6.13
2019-06-07T03:52:25.222Z,6.00
2019-06-07T03:54:52.701Z,5.80
2019-06-07T03:57:20.187Z,6.13
2019-06-07T03:59:47.714Z,5.87
2019-06-07T04:02:15.130Z,6.10
2019-06-07T04:04:42.581Z,6.17
2019-06-07T04:07:10.233Z,5.10
2019-06-07T04:09:42.501Z,5.63
2019-06-07T04:12:06.835Z,5.60
2019-06-07T04:14:35.156Z,5.70
2019-06-07T04:17:03.738Z,5.17
2019-06-07T04:19:34.331Z,6.00
2019-06-07T04:22:00.849Z,5.50
2019-06-07T04:24:28.669Z,5.10
2019-06-07T04:26:56.235Z,5.07
2019-06-07T04:29:33.991Z,5.40
2019-06-07T04:31:53.073Z,5.20
2019-06-07T04:34:20.428Z,4.53
2019-06-07T04:36:58.682Z,5.17
2019-06-07T04:39:17.836Z,5.10
2019-06-07T04:41:46.667Z,4.93
2019-06-07T04:44:15.970Z,4.47
2019-06-07T04:46:46.026Z,5.10
2019-06-07T04:49:15.016Z,5.47
2019-06-07T04:51:43.907Z,4.83
2019-06-07T04:54:11.366Z,5.07
2019-06-07T04:56:43.756Z,5.67
2019-06-07T04:59:07.971Z,5.63
2019-06-07T05:01:37.441Z,5.77
2019-06-07T05:04:04.612Z,5.53
2019-06-07T05:06:34.822Z,5.37
2019-06-07T05:09:01.510Z,5.60
2019-06-07T05:11:31.495Z,5.27
2019-06-07T05:13:58.523Z,6.20
2019-06-07T05:16:25.938Z,6.03
2019-06-07T05:18:53.328Z,5.87
2019-06-07T05:21:20.698Z,6.33
2019-06-07T05:24:09.463Z,5.77
2019-06-07T05:26:17.565Z,6.20
2019-06-07T05:28:44.964Z,6.67
2019-06-07T05:31:12.353Z,5.70
2019-06-07T05:33:41.291Z,5.43
2019-06-07T05:36:09.038Z,6.47
2019-06-07T05:38:40.531Z,5.87
2019-06-07T05:41:05.632Z,5.93
2019-06-07T05:43:34.917Z,6.77
2019-06-07T05:46:02.391Z,7.47
2019-06-07T05:48:29.807Z,7.20
2019-06-07T05:50:58.046Z,6.97
2019-06-07T05:53:26.707Z,6.00
2019-06-07T05:55:54.182Z,6.90
2019-06-07T05:58:21.753Z,6.87
2019-06-07T06:00:49.194Z,6.77
2019-06-07T06:03:16.783Z,6.53
2019-06-07T06:05:54.255Z,9.07
2019-06-07T06:08:13.841Z,7.90
2019-06-07T06:10:46.128Z,8.27
2019-06-07T06:13:10.550Z,8.67
2019-06-07T06:15:48.641Z,8.50
2019-06-07T06:18:07.510Z,7.27
2019-06-07T06:20:54.470Z,7.20
2019-06-07T06:23:04.173Z,7.97
2019-06-07T06:25:33.826Z,8.00
2019-06-07T06:28:11.631Z,8.43
2019-06-07T06:30:30.145Z,7.67
2019-06-07T06:32:58.592Z,6.63
2019-06-07T06:35:26.327Z,6.20
2019-06-07T06:37:53.781Z,6.13
2019-06-07T06:40:21.925Z,5.93
2019-06-07T06:42:50.628Z,5.40
2019-06-07T06:45:18.749Z,5.60
2019-06-07T06:47:50.053Z,6.13
2019-06-07T06:50:15.619Z,6.23
2019-06-07T06:52:45.498Z,6.83
2019-06-07T06:55:12.432Z,6.70
2019-06-07T06:57:41.420Z,7.17
2019-06-07T07:00:10.315Z,6.70
2019-06-07T07:03:27.579Z,6.97
2019-06-07T07:05:09.030Z,6.93
2019-06-07T07:07:36.349Z,6.10
2019-06-07T07:10:06.138Z,6.10
2019-06-07T07:12:33.674Z,7.00
2019-06-07T07:15:01.133Z,6.23
2019-06-07T07:20:02.121Z,6.50
2019-06-07T07:22:29.603Z,6.20
2019-06-07T07:24:57.361Z,6.23
2019-06-07T07:27:24.703Z,6.73
2019-06-07T07:30:11.217Z,5.87
2019-06-07T07:32:21.495Z,5.10
2019-06-07T07:34:51.803Z,5.37
2019-06-07T07:37:18.201Z,5.30
2019-06-07T07:39:48.684Z,5.67
2019-06-07T07:42:21.131Z,5.73
2019-06-07T07:44:45.038Z,5.30
2019-06-07T07:47:13.871Z,5.50
2019-06-07T07:49:53.986Z,5.53
2019-06-07T07:52:21.258Z,5.50
2019-06-07T07:54:49.337Z,5.13
2019-06-07T07:57:18.194Z,5.37
2019-06-07T08:00:01.581Z,5.43
2019-06-07T08:02:15.510Z,5.20
2019-06-07T08:05:13.646Z,4.60
2019-06-07T08:07:12.164Z,5.37
2019-06-07T08:09:39.537Z,4.60
2019-06-07T08:12:06.885Z,5.13
2019-06-07T08:14:34.326Z,5.20
2019-06-07T08:17:01.672Z,5.13
2019-06-07T08:19:29.020Z,5.53
2019-06-07T08:21:56.358Z,4.80
2019-06-07T08:24:23.834Z,5.17
2019-06-07T08:27:12.421Z,4.70
2019-06-07T08:29:20.518Z,4.57
2019-06-07T08:31:48.343Z,5.07
2019-06-07T08:34:16.432Z,5.30
2019-06-07T08:36:43.928Z,5.23
2019-06-07T08:39:11.576Z,4.23
2019-06-07T08:41:53.471Z,4.10
2019-06-07T08:44:22.833Z,4.20
2019-06-07T08:46:37.831Z,4.60
2019-06-07T08:49:05.294Z,4.50
2019-06-07T08:51:43.873Z,4.30
2019-06-07T08:54:22.138Z,4.63
2019-06-07T08:59:10.845Z,4.37
2019-06-07T09:01:32.653Z,4.10
2019-06-07T09:04:06.674Z,4.40
2019-06-07T09:07:18.895Z,4.10
2019-06-07T09:09:18.928Z,4.12
2019-06-07T09:11:46.520Z,4.30
2019-06-07T09:14:15.172Z,3.98
2019-06-07T09:16:42.659Z,4.50
2019-06-07T09:19:11.109Z,4.00
2019-06-07T09:21:50.576Z,4.50
2019-06-07T09:24:40.113Z,4.17
2019-06-07T09:30:38.795Z,4.10
2019-06-07T09:33:20.187Z,4.10
2019-06-07T09:35:56.243Z,4.45
2019-06-07T09:38:48.223Z,4.70
2019-06-07T09:41:46.174Z,4.50
2019-06-07T09:44:10.808Z,4.20
2019-06-07T09:46:41.399Z,4.70
2019-06-07T09:49:39.621Z,4.78
2019-06-07T09:52:20.165Z,5.70
2019-06-07T09:55:19.569Z,4.72
2019-06-07T09:57:46.141Z,5.40
2019-06-07T10:00:42.532Z,5.08
2019-06-07T10:02:54.821Z,5.00
2019-06-07T10:05:22.302Z,4.65
2019-06-07T10:08:02.485Z,5.90
2019-06-07T10:12:49.294Z,5.28
2019-06-07T10:15:20.699Z,4.55
2019-06-07T10:17:48.201Z,4.55
2019-06-07T10:20:16.186Z,4.58
2019-06-07T10:22:43.614Z,4.10
2019-06-07T10:25:11.158Z,4.28
2019-06-07T10:27:38.460Z,4.20
2019-06-07T10:30:06.442Z,4.20
2019-06-07T10:32:33.869Z,4.45
2019-06-07T10:35:05.053Z,4.12
2019-06-07T10:37:33.207Z,4.10
2019-06-07T10:40:00.686Z,4.47
2019-06-07T10:42:28.125Z,4.00
2019-06-07T10:44:55.481Z,4.00
2019-06-07T10:47:24.312Z,4.20
2019-06-07T10:49:51.779Z,4.13
2019-06-07T10:52:19.240Z,4.73
2019-06-07T10:54:46.948Z,4.53
2019-06-07T10:57:16.236Z,4.50
2019-06-07T10:59:45.565Z,4.37
2019-06-07T11:02:14.065Z,4.27
2019-06-07T11:04:41.758Z,4.37
2019-06-07T11:07:10.118Z,3.80
2019-06-07T11:09:37.718Z,3.80
2019-06-07T11:12:06.275Z,3.73
2019-06-07T11:14:33.839Z,4.10
2019-06-07T11:17:01.326Z,4.10
2019-06-07T11:19:28.733Z,4.63
2019-06-07T11:21:56.209Z,4.53
2019-06-07T11:24:24.783Z,4.33
2019-06-07T11:26:52.417Z,4.53
2019-06-07T11:29:19.956Z,4.33
2019-06-07T11:31:47.708Z,4.63
2019-06-07T11:34:15.602Z,4.50
2019-06-07T11:36:42.928Z,4.20
2019-06-07T11:39:11.057Z,4.10
2019-06-07T11:41:38.720Z,4.20
2019-06-07T11:44:06.706Z,4.53
2019-06-07T11:46:34.356Z,4.00
2019-06-07T11:49:02.722Z,4.10
2019-06-07T11:51:30.192Z,3.70
2019-06-07T11:53:57.660Z,4.13
2019-06-07T11:56:25.010Z,3.60
2019-06-07T11:58:52.377Z,4.23
2019-06-07T12:01:19.858Z,4.00
2019-06-07T12:03:47.253Z,4.30
2019-06-07T12:06:16.238Z,3.90
2019-06-07T12:08:43.878Z,3.90
2019-06-07T12:11:12.210Z,4.30
2019-06-07T12:13:39.695Z,4.27
2019-06-07T12:16:07.143Z,4.20
2019-06-07T12:18:34.607Z,4.30
2019-06-07T12:21:02.085Z,4.20
2019-06-07T12:23:29.547Z,4.07
2019-06-07T12:25:57.045Z,3.90
2019-06-07T12:28:24.710Z,4.17
2019-06-07T12:30:55.067Z,3.83
2019-06-07T12:33:21.670Z,4.20
2019-06-07T12:35:49.255Z,4.20
2019-06-07T12:38:17.319Z,4.13
2019-06-07T12:40:57.296Z,4.03
2019-06-07T12:43:16.625Z,4.10
2019-06-07T12:45:45.457Z,4.23
2019-06-07T12:48:17.596Z,4.20
2019-06-07T12:50:43.916Z,4.43
2019-06-07T12:53:11.581Z,4.30
2019-06-07T12:55:39.094Z,4.73
2019-06-07T12:58:06.590Z,4.17
2019-06-07T13:00:34.288Z,4.63
2019-06-07T13:03:01.718Z,4.83
2019-06-07T13:05:29.095Z,4.73
2019-06-07T13:07:57.817Z,4.50
2019-06-07T13:10:25.304Z,4.20
2019-06-07T13:12:52.711Z,4.00
2019-06-07T13:15:22.676Z,4.40
2019-06-07T13:17:49.443Z,4.20
2019-06-07T13:20:18.224Z,4.17
2019-06-07T13:22:45.931Z,4.40
2019-06-07T13:25:16.283Z,4.23
2019-06-07T13:27:43.827Z,4.77
2019-06-07T13:30:11.452Z,4.67
2019-06-07T13:32:39.387Z,4.60
2019-06-07T13:35:07.068Z,4.30
2019-06-07T13:37:35.137Z,4.00
2019-06-07T13:40:02.776Z,4.70
2019-06-07T13:42:30.239Z,4.20
2019-06-07T13:44:57.725Z,4.13
2019-06-07T13:47:27.518Z,4.00
2019-06-07T13:49:55.534Z,4.60
2019-06-07T13:52:23.112Z,4.30
2019-06-07T13:54:50.556Z,4.30
2019-06-07T13:57:17.985Z,4.13
2019-06-07T13:59:45.508Z,4.20
2019-06-07T14:02:12.998Z,4.17
2019-06-07T14:04:40.463Z,4.27
2019-06-07T14:07:07.957Z,6.03
2019-06-07T14:09:35.338Z,5.23
2019-06-07T14:12:02.879Z,4.37
2019-06-07T14:14:30.952Z,5.33
2019-06-07T14:16:58.526Z,4.80
2019-06-07T14:19:26.513Z,4.83
2019-06-07T14:21:54.287Z,4.90
2019-06-07T14:24:22.938Z,4.30
2019-06-07T14:27:05.910Z,4.43
2019-06-07T14:29:34.354Z,4.50
2019-06-07T14:32:01.981Z,4.43
2019-06-07T14:34:30.606Z,4.10
2019-06-07T14:36:58.225Z,4.70
2019-06-07T14:39:27.015Z,4.37
2019-06-07T14:42:08.519Z,4.20
2019-06-07T14:44:29.808Z,3.93
2019-06-07T14:46:58.315Z,4.60
2019-06-07T14:49:26.350Z,4.43
2019-06-07T14:51:53.944Z,4.20
2019-06-07T14:54:21.434Z,4.93
2019-06-07T14:56:48.965Z,6.30
2019-06-07T14:59:16.312Z,5.57
2019-06-07T15:01:44.518Z,4.60
2019-06-07T15:04:11.949Z,4.70
2019-06-07T15:06:39.428Z,4.60
2019-06-07T15:09:07.050Z,4.73
2019-06-07T15:11:35.038Z,4.20
2019-06-07T15:14:02.597Z,4.27
2019-06-07T15:16:30.536Z,4.13
2019-06-07T15:18:59.296Z,4.37
2019-06-07T15:21:26.822Z,4.30
2019-06-07T15:23:54.247Z,4.00
2019-06-07T15:26:21.749Z,4.53
2019-06-07T15:29:08.876Z,5.03
2019-06-07T15:31:36.740Z,4.70
2019-06-07T15:34:05.610Z,4.73
2019-06-07T15:36:34.349Z,4.13
2019-06-07T15:39:01.885Z,4.63
2019-06-07T15:41:30.834Z,4.70
2019-06-07T15:43:58.466Z,4.10
2019-06-07T15:46:26.003Z,4.60
2019-06-07T15:48:53.444Z,4.37
2019-06-07T15:51:20.851Z,4.23
2019-06-07T15:53:48.271Z,5.07
2019-06-07T15:56:15.663Z,4.57
2019-06-07T15:58:43.154Z,4.47
2019-06-07T16:01:10.619Z,4.70
2019-06-07T16:03:38.114Z,4.60
2019-06-07T16:06:05.579Z,4.77
2019-06-07T16:08:34.240Z,4.70
2019-06-07T16:11:01.793Z,4.10
2019-06-07T16:13:29.301Z,4.43
2019-06-07T16:16:16.373Z,4.63
2019-06-07T16:19:03.505Z,5.10
2019-06-07T16:21:31.084Z,5.80
2019-06-07T16:23:58.587Z,5.10
2019-06-07T16:26:26.556Z,5.33
2019-06-07T16:28:57.081Z,4.50
2019-06-07T16:31:23.220Z,4.80
2019-06-07T16:33:51.113Z,4.77
2019-06-07T16:36:18.560Z,4.17
2019-06-07T16:38:45.959Z,4.80
2019-06-07T16:41:13.438Z,4.70
2019-06-07T16:43:41.069Z,4.70
2019-06-07T16:46:08.511Z,4.30
2019-06-07T16:48:36.775Z,4.40
2019-06-07T16:51:04.316Z,4.93
2019-06-07T16:53:32.090Z,5.00
2019-06-07T16:55:59.923Z,5.30
2019-06-07T16:58:27.407Z,5.27
2019-06-07T17:00:58.249Z,5.03
2019-06-07T17:03:25.777Z,5.83
2019-06-07T17:05:53.301Z,4.93
2019-06-07T17:08:20.710Z,4.47
2019-06-07T17:10:49.099Z,4.90
2019-06-07T17:13:32.044Z,4.70
2019-06-07T17:15:46.743Z,4.50
2019-06-07T17:18:15.635Z,4.60
2019-06-07T17:20:43.272Z,4.80
2019-06-07T17:23:14.044Z,4.57
2019-06-07T17:25:41.823Z,5.00
2019-06-07T17:28:09.379Z,4.80
2019-06-07T17:30:36.798Z,4.50
2019-06-07T17:33:04.502Z,4.60
2019-06-07T17:35:32.071Z,4.67
2019-06-07T17:37:59.734Z,4.70
2019-06-07T17:40:27.157Z,5.20
2019-06-07T17:42:54.649Z,4.67
2019-06-07T17:45:23.094Z,5.10
2019-06-07T17:47:52.071Z,5.10
2019-06-07T17:50:21.021Z,5.10
2019-06-07T17:52:50.049Z,4.90
2019-06-07T17:55:18.163Z,4.90
2019-06-07T17:57:46.513Z,4.77
2019-06-07T18:00:28.160Z,4.70
2019-06-07T18:02:46.820Z,4.83
2019-06-07T18:05:14.473Z,4.40
2019-06-07T18:07:45.413Z,5.90
2019-06-07T18:10:17.315Z,5.40
2019-06-07T18:12:45.952Z,5.10
2019-06-07T18:15:13.981Z,4.57
2019-06-07T18:17:41.449Z,4.87
2019-06-07T18:20:09.895Z,4.70
2019-06-07T18:22:37.437Z,4.83
2019-06-07T18:28:37.761Z,5.00
2019-06-07T18:31:07.765Z,4.90
2019-06-07T18:33:36.228Z,4.57
2019-06-07T18:36:06.228Z,4.17
2019-06-07T18:38:39.999Z,4.10
2019-06-07T18:41:07.553Z,4.37
2019-06-07T18:43:35.802Z,4.07
2019-06-07T18:46:03.454Z,4.03
2019-06-07T18:48:31.026Z,4.83
2019-06-07T18:50:59.741Z,4.60
2019-06-07T18:56:56.814Z,4.90
2019-06-07T18:59:24.844Z,4.60
2019-06-07T19:02:19.869Z,4.77
2019-06-07T19:04:47.992Z,4.60
2019-06-07T19:07:15.525Z,4.77
2019-06-07T19:09:43.154Z,4.60
2019-06-07T19:12:10.601Z,5.10
2019-06-07T19:14:57.739Z,4.93
2019-06-07T19:17:27.640Z,4.90
2019-06-07T19:19:56.178Z,5.07
2019-06-07T19:22:23.833Z,5.00
2019-06-07T19:24:52.109Z,5.23
2019-06-07T19:27:19.905Z,5.50
2019-06-07T19:29:47.327Z,5.20
2019-06-07T19:32:15.614Z,5.03
2019-06-07T19:34:43.344Z,5.23
2019-06-07T19:37:11.031Z,5.23
2019-06-07T19:39:38.590Z,5.40
2019-06-07T19:42:06.121Z,5.20
2019-06-07T19:44:33.926Z,5.37
2019-06-07T19:47:02.733Z,5.60
2019-06-07T19:49:30.227Z,5.80
2019-06-07T19:51:58.980Z,5.97
2019-06-07T19:54:26.596Z,5.90
2019-06-07T19:56:55.419Z,6.30
2019-06-07T19:59:23.043Z,6.33
2019-06-07T20:01:50.540Z,5.87
2019-06-07T20:04:18.113Z,6.87
2019-06-07T20:06:45.565Z,5.80
2019-06-07T20:09:13.069Z,5.90
2019-06-07T20:11:40.618Z,5.50
2019-06-07T20:14:08.062Z,5.77
2019-06-07T20:16:38.595Z,5.40
2019-06-07T20:19:06.088Z,5.40
2019-06-07T20:21:33.841Z,5.30
2019-06-07T20:24:17.621Z,5.40
2019-06-07T20:26:50.174Z,5.90
2019-06-07T20:29:25.819Z,5.60
2019-06-07T20:31:46.964Z,5.20
2019-06-07T20:34:14.474Z,5.20
2019-06-07T20:36:45.662Z,5.20
2019-06-07T20:39:11.491Z,4.73
2019-06-07T20:41:39.013Z,5.03
2019-06-07T20:44:07.920Z,4.80
2019-06-07T20:46:35.700Z,4.63
2019-06-07T20:49:04.925Z,4.67
2019-06-07T20:51:32.815Z,4.50
2019-06-07T20:54:00.438Z,4.40
2019-06-07T20:56:27.844Z,4.50
2019-06-07T20:58:55.577Z,4.67
2019-06-07T21:01:23.015Z,4.70
2019-06-07T21:03:50.525Z,4.93
2019-06-07T21:06:17.942Z,4.83
2019-06-07T21:08:45.473Z,6.77
2019-06-07T21:11:12.990Z,9.23
2019-06-07T21:13:40.404Z,5.80
2019-06-07T21:16:08.290Z,6.23
2019-06-07T21:18:35.802Z,5.53
2019-06-07T21:21:04.382Z,6.57
2019-06-07T21:23:31.935Z,4.70
2019-06-07T21:26:00.651Z,4.77
2019-06-07T21:28:28.237Z,4.50
2019-06-07T21:30:55.740Z,3.80
2019-06-07T21:33:23.318Z,3.67
2019-06-07T21:35:50.754Z,4.10
2019-06-07T21:38:18.102Z,6.73
2019-06-07T21:40:46.010Z,4.20
2019-06-07T21:43:13.508Z,4.20
2019-06-07T21:45:41.238Z,3.50
2019-06-07T21:48:14.723Z,3.63
2019-06-07T21:50:42.104Z,3.50
2019-06-07T21:53:10.672Z,3.30
2019-06-07T21:55:38.313Z,2.73
2019-06-07T21:58:06.969Z,2.80
2019-06-07T22:01:12.037Z,2.77
2019-06-07T22:03:39.572Z,2.70
2019-06-07T22:06:07.619Z,2.63
2019-06-07T22:08:37.434Z,2.77
2019-06-07T22:11:06.095Z,2.93
2019-06-07T22:13:33.669Z,2.80
2019-06-07T22:16:01.144Z,2.70
2019-06-07T22:18:28.680Z,2.70
2019-06-07T22:20:56.292Z,2.93
2019-06-07T22:23:23.692Z,2.90
2019-06-07T22:25:51.146Z,2.70
2019-06-07T22:28:18.653Z,2.77
2019-06-07T22:30:46.172Z,2.77
2019-06-07T22:33:15.074Z,2.70
2019-06-07T22:35:42.750Z,2.90
2019-06-07T22:38:10.313Z,2.60
2019-06-07T22:40:37.774Z,2.60
2019-06-07T22:43:05.127Z,2.70
2019-06-07T22:45:32.656Z,2.60
2019-06-07T22:48:00.149Z,2.60
2019-06-07T22:50:27.664Z,2.70
2019-06-07T22:52:54.991Z,2.70
2019-06-07T22:55:22.506Z,2.70
2019-06-07T22:57:57.111Z,2.70
2019-06-07T23:00:25.685Z,2.80
2019-06-07T23:02:53.072Z,2.60
2019-06-07T23:05:20.628Z,2.60
2019-06-07T23:07:48.158Z,2.70
2019-06-07T23:10:15.678Z,2.73
2019-06-07T23:12:43.074Z,2.50
2019-06-07T23:15:11.516Z,2.70
2019-06-07T23:17:41.822Z,2.60
2019-06-07T23:20:10.121Z,2.50
2019-06-07T23:22:37.551Z,2.50
2019-06-07T23:25:05.800Z,2.40
2019-06-07T23:27:33.232Z,2.63
2019-06-07T23:30:08.140Z,2.70
2019-06-07T23:32:29.955Z,2.60
2019-06-07T23:34:57.454Z,2.60
2019-06-07T23:37:25.951Z,2.40
2019-06-07T23:39:53.383Z,2.70
2019-06-07T23:42:21.824Z,2.40
2019-06-07T23:44:49.324Z,2.53
2019-06-07T23:47:17.739Z,2.40
2019-06-07T23:49:46.385Z,2.67
2019-06-07T23:52:13.940Z,2.70
2019-06-07T23:54:41.393Z,2.60
2019-06-07T23:57:08.722Z,2.60
2019-06-07T23:59:36.093Z,2.70
